createdAt,value
2023-04-25T00:00:37.704Z,100.00
2023-04-25T00:01:36.513Z,100.00
2023-04-25T00:02:33.702Z,100.00
2023-04-25T00:03:30.864Z,100.00
2023-04-25T00:04:28.907Z,100.00
2023-04-25T00:05:25.997Z,99.64
2023-04-25T00:06:22.809Z,99.32
2023-04-25T00:07:19.454Z,99.24
2023-04-25T00:08:16.141Z,98.09
2023-04-25T00:09:12.766Z,97.42
2023-04-25T00:10:12.056Z,96.57
2023-04-25T00:11:08.693Z,96.35
2023-04-25T00:12:05.584Z,96.86
2023-04-25T00:13:03.608Z,97.19
2023-04-25T00:14:03.169Z,97.08
2023-04-25T00:15:01.081Z,97.33
2023-04-25T00:15:58.988Z,98.23
2023-04-25T00:16:55.887Z,98.82
2023-04-25T00:17:54.099Z,98.76
2023-04-25T00:18:54.764Z,98.95
2023-04-25T00:19:51.826Z,98.80
2023-04-25T00:20:49.187Z,98.07
2023-04-25T00:21:47.366Z,98.15
2023-04-25T00:22:44.172Z,98.77
2023-04-25T00:23:40.963Z,99.07
2023-04-25T00:24:37.630Z,99.43
2023-04-25T00:25:34.566Z,99.36
2023-04-25T00:26:31.195Z,99.34
2023-04-25T00:27:28.308Z,99.05
2023-04-25T00:28:24.901Z,99.87
2023-04-25T00:29:21.556Z,99.34
2023-04-25T00:30:18.131Z,98.97
2023-04-25T00:31:15.199Z,98.48
2023-04-25T00:32:11.902Z,98.53
2023-04-25T00:33:09.044Z,97.95
2023-04-25T00:34:06.799Z,98.30
2023-04-25T00:35:03.557Z,98.37
2023-04-25T00:36:00.305Z,99.16
2023-04-25T00:36:57.932Z,98.89
2023-04-25T00:37:55.979Z,98.69
2023-04-25T00:38:54.866Z,98.97
2023-04-25T00:39:52.393Z,99.24
2023-04-25T00:40:49.236Z,99.77
2023-04-25T00:41:46.420Z,100.00
2023-04-25T00:42:43.373Z,100.00
2023-04-25T00:43:41.137Z,100.00
2023-04-25T00:44:38.288Z,100.00
2023-04-25T00:45:38.881Z,100.00
2023-04-25T00:46:36.676Z,100.00
2023-04-25T00:47:34.108Z,100.00
2023-04-25T00:48:30.728Z,100.00
2023-04-25T00:49:27.569Z,100.00
2023-04-25T00:50:25.620Z,100.00
2023-04-25T00:51:22.916Z,100.00
2023-04-25T00:52:19.849Z,100.00
2023-04-25T00:53:16.410Z,100.00
2023-04-25T00:54:13.508Z,100.00
2023-04-25T00:55:11.733Z,100.00
2023-04-25T00:56:08.624Z,100.00
2023-04-25T00:57:05.298Z,100.00
2023-04-25T00:58:01.993Z,100.00
2023-04-25T00:58:58.672Z,100.00
2023-04-25T00:59:55.629Z,100.00
2023-04-25T01:00:53.380Z,100.00
2023-04-25T01:01:50.716Z,100.00
2023-04-25T01:02:47.775Z,100.00
2023-04-25T01:03:47.963Z,100.00
2023-04-25T01:04:45.748Z,100.00
2023-04-25T01:05:43.454Z,100.00
2023-04-25T01:06:40.979Z,100.00
2023-04-25T01:07:37.744Z,100.00
2023-04-25T01:08:35.274Z,100.00
2023-04-25T01:09:33.154Z,100.00
2023-04-25T01:10:29.822Z,100.00
2023-04-25T01:11:26.397Z,100.00
2023-04-25T01:12:23.323Z,100.00
2023-04-25T01:13:20.014Z,100.00
2023-04-25T01:14:17.317Z,100.00
2023-04-25T01:15:13.978Z,100.00
2023-04-25T01:16:10.777Z,100.00
2023-04-25T01:17:08.807Z,100.00
2023-04-25T01:18:06.550Z,100.00
2023-04-25T01:19:09.713Z,100.00
2023-04-25T01:20:08.509Z,100.00
2023-04-25T01:21:13.599Z,100.00
2023-04-25T01:22:11.588Z,100.00
2023-04-25T01:23:08.242Z,100.00
2023-04-25T01:24:05.393Z,100.00
2023-04-25T01:25:02.710Z,100.00
2023-04-25T01:25:59.426Z,100.00
2023-04-25T01:26:57.420Z,100.00
2023-04-25T01:27:54.351Z,100.00
2023-04-25T01:28:51.604Z,100.00
2023-04-25T01:29:48.901Z,100.00
2023-04-25T01:30:46.152Z,100.00
2023-04-25T01:31:43.827Z,100.00
2023-04-25T01:32:42.491Z,100.00
2023-04-25T01:33:39.241Z,100.00
2023-04-25T01:34:35.965Z,100.00
2023-04-25T01:35:32.823Z,100.00
2023-04-25T01:36:30.015Z,100.00
2023-04-25T01:37:26.722Z,100.00
2023-04-25T01:38:23.583Z,100.00
2023-04-25T01:39:21.047Z,100.00
2023-04-25T01:40:19.776Z,100.00
2023-04-25T01:41:18.079Z,100.00
2023-04-25T01:42:14.750Z,100.00
2023-04-25T01:43:13.044Z,100.00
2023-04-25T01:44:09.987Z,100.00
2023-04-25T01:45:07.923Z,100.00
2023-04-25T01:46:05.190Z,100.00
2023-04-25T01:47:01.893Z,100.00
2023-04-25T01:48:00.520Z,100.00
2023-04-25T01:48:57.275Z,100.00
2023-04-25T01:49:53.874Z,100.00
2023-04-25T01:50:50.482Z,100.00
2023-04-25T01:51:47.153Z,100.00
2023-04-25T01:52:43.984Z,100.00
2023-04-25T01:53:41.023Z,100.00
2023-04-25T01:54:37.737Z,100.00
2023-04-25T01:55:34.546Z,100.00
2023-04-25T01:56:37.475Z,100.00
2023-04-25T01:57:34.218Z,100.00
2023-04-25T01:58:30.925Z,100.00
2023-04-25T01:59:27.598Z,100.00
2023-04-25T02:00:24.254Z,100.00
2023-04-25T02:01:20.903Z,100.00
2023-04-25T02:02:17.639Z,100.00
2023-04-25T02:03:14.398Z,100.00
2023-04-25T02:04:11.251Z,100.00
2023-04-25T02:05:08.609Z,100.00
2023-04-25T02:06:05.358Z,100.00
2023-04-25T02:07:01.954Z,100.00
2023-04-25T02:07:58.563Z,100.00
2023-04-25T02:08:55.224Z,100.00
2023-04-25T02:09:51.844Z,100.00
2023-04-25T02:10:48.436Z,100.00
2023-04-25T02:11:45.544Z,100.00
2023-04-25T02:12:42.299Z,100.00
2023-04-25T02:13:38.944Z,100.00
2023-04-25T02:14:35.601Z,100.00
2023-04-25T02:15:32.550Z,100.00
2023-04-25T02:16:29.278Z,100.00
2023-04-25T02:17:26.208Z,100.00
2023-04-25T02:18:22.845Z,100.00
2023-04-25T02:19:19.516Z,100.00
2023-04-25T02:20:17.067Z,100.00
2023-04-25T02:21:13.757Z,100.00
2023-04-25T02:22:11.464Z,100.00
2023-04-25T02:23:08.235Z,100.00
2023-04-25T02:24:05.658Z,100.00
2023-04-25T02:25:02.714Z,100.00
2023-04-25T02:25:59.494Z,100.00
2023-04-25T02:26:57.064Z,100.00
2023-04-25T02:27:53.661Z,100.00
2023-04-25T02:28:51.473Z,100.00
2023-04-25T02:29:48.111Z,100.00
2023-04-25T02:30:44.724Z,100.00
2023-04-25T02:31:41.354Z,100.00
2023-04-25T02:32:38.095Z,100.00
2023-04-25T02:33:35.518Z,100.00
2023-04-25T02:34:32.344Z,100.00
2023-04-25T02:35:28.955Z,100.00
2023-04-25T02:36:25.614Z,100.00
2023-04-25T02:37:22.202Z,100.00
2023-04-25T02:38:18.773Z,100.00
2023-04-25T02:39:15.373Z,100.00
2023-04-25T02:40:12.315Z,100.00
2023-04-25T02:41:08.934Z,100.00
2023-04-25T02:42:05.698Z,100.00
2023-04-25T02:43:02.374Z,100.00
2023-04-25T02:43:58.988Z,100.00
2023-04-25T02:44:55.623Z,100.00
2023-04-25T02:45:52.385Z,100.00
2023-04-25T02:46:48.999Z,100.00
2023-04-25T02:47:45.767Z,100.00
2023-04-25T02:48:42.482Z,100.00
2023-04-25T02:49:39.063Z,100.00
2023-04-25T02:50:35.767Z,100.00
2023-04-25T02:51:32.409Z,100.00
2023-04-25T02:52:29.020Z,100.00
2023-04-25T02:53:25.680Z,100.00
2023-04-25T02:54:22.246Z,100.00
2023-04-25T02:55:18.908Z,100.00
2023-04-25T02:56:15.495Z,100.00
2023-04-25T02:57:12.107Z,100.00
2023-04-25T02:58:08.799Z,100.00
2023-04-25T02:59:05.521Z,100.00
2023-04-25T03:00:02.140Z,100.00
2023-04-25T03:00:58.728Z,100.00
2023-04-25T03:01:55.914Z,100.00
2023-04-25T03:02:52.716Z,100.00
2023-04-25T03:03:49.760Z,100.00
2023-04-25T03:04:47.238Z,100.00
2023-04-25T03:05:44.371Z,100.00
2023-04-25T03:06:40.990Z,100.00
2023-04-25T03:07:37.564Z,100.00
2023-04-25T03:08:35.456Z,100.00
2023-04-25T03:09:32.119Z,100.00
2023-04-25T03:10:28.723Z,100.00
2023-04-25T03:11:27.003Z,100.00
2023-04-25T03:12:23.683Z,100.00
2023-04-25T03:13:20.542Z,100.00
2023-04-25T03:14:17.080Z,100.00
2023-04-25T03:15:13.705Z,100.00
2023-04-25T03:16:10.961Z,100.00
2023-04-25T03:17:07.983Z,100.00
2023-04-25T03:18:05.066Z,100.00
2023-04-25T03:19:01.659Z,100.00
2023-04-25T03:19:58.851Z,100.00
2023-04-25T03:20:55.489Z,100.00
2023-04-25T03:21:52.142Z,100.00
2023-04-25T03:22:48.816Z,100.00
2023-04-25T03:23:45.578Z,100.00
2023-04-25T03:24:42.216Z,100.00
2023-04-25T03:25:38.849Z,100.00
2023-04-25T03:26:35.465Z,100.00
2023-04-25T03:27:32.081Z,100.00
2023-04-25T03:28:28.976Z,100.00
2023-04-25T03:29:27.552Z,100.00
2023-04-25T03:30:24.220Z,100.00
2023-04-25T03:31:21.160Z,100.00
2023-04-25T03:32:17.819Z,100.00
2023-04-25T03:33:14.502Z,100.00
2023-04-25T03:34:11.138Z,100.00
2023-04-25T03:35:08.212Z,100.00
2023-04-25T03:36:05.175Z,100.00
2023-04-25T03:37:01.843Z,100.00
2023-04-25T03:37:58.386Z,100.00
2023-04-25T03:38:55.130Z,100.00
2023-04-25T03:39:52.011Z,100.00
2023-04-25T03:40:48.609Z,100.00
2023-04-25T03:41:45.247Z,100.00
2023-04-25T03:42:43.484Z,100.00
2023-04-25T03:43:41.619Z,100.00
2023-04-25T03:44:38.270Z,100.00
2023-04-25T03:45:34.958Z,100.00
2023-04-25T03:46:31.593Z,100.00
2023-04-25T03:47:28.301Z,100.00
2023-04-25T03:48:27.010Z,100.00
2023-04-25T03:49:23.658Z,100.00
2023-04-25T03:50:21.453Z,100.00
2023-04-25T03:51:18.088Z,100.00
2023-04-25T03:52:14.796Z,100.00
2023-04-25T03:53:11.360Z,100.00
2023-04-25T03:54:08.721Z,100.00
2023-04-25T03:55:06.078Z,100.00
2023-04-25T03:56:02.791Z,100.00
2023-04-25T03:56:59.558Z,100.00
2023-04-25T03:57:56.204Z,100.00
2023-04-25T03:58:52.888Z,100.00
2023-04-25T03:59:49.482Z,100.00
2023-04-25T04:00:46.119Z,100.00
2023-04-25T04:01:42.742Z,100.00
2023-04-25T04:02:40.610Z,100.00
2023-04-25T04:03:38.997Z,100.00
2023-04-25T04:04:36.904Z,100.00
2023-04-25T04:05:34.413Z,100.00
2023-04-25T04:06:31.127Z,100.00
2023-04-25T04:07:27.819Z,100.00
2023-04-25T04:08:24.502Z,100.00
2023-04-25T04:09:21.573Z,100.00
2023-04-25T04:10:18.208Z,100.00
2023-04-25T04:11:14.837Z,100.00
2023-04-25T04:12:11.425Z,100.00
2023-04-25T04:13:08.024Z,100.00
2023-04-25T04:14:04.838Z,100.00
2023-04-25T04:15:02.301Z,100.00
2023-04-25T04:15:59.156Z,100.00
2023-04-25T04:16:55.815Z,100.00
2023-04-25T04:17:52.428Z,100.00
2023-04-25T04:18:49.058Z,100.00
2023-04-25T04:19:45.651Z,100.00
2023-04-25T04:20:42.311Z,100.00
2023-04-25T04:21:38.975Z,100.00
2023-04-25T04:22:35.917Z,100.00
2023-04-25T04:23:32.582Z,100.00
2023-04-25T04:24:29.262Z,100.00
2023-04-25T04:25:25.998Z,100.00
2023-04-25T04:26:27.122Z,100.00
2023-04-25T04:27:24.477Z,100.00
2023-04-25T04:28:21.614Z,100.00
2023-04-25T04:29:21.959Z,100.00
2023-04-25T04:30:18.658Z,100.00
2023-04-25T04:31:17.931Z,100.00
2023-04-25T04:32:15.845Z,100.00
2023-04-25T04:33:13.212Z,100.00
2023-04-25T04:34:10.608Z,100.00
2023-04-25T04:35:07.800Z,100.00
2023-04-25T04:36:05.222Z,100.00
2023-04-25T04:37:02.089Z,100.00
2023-04-25T04:37:58.762Z,100.00
2023-04-25T04:38:55.337Z,100.00
2023-04-25T04:39:52.950Z,100.00
2023-04-25T04:40:49.497Z,100.00
2023-04-25T04:41:46.474Z,100.00
2023-04-25T04:42:43.816Z,100.00
2023-04-25T04:43:40.655Z,100.00
2023-04-25T04:44:37.749Z,100.00
2023-04-25T04:45:34.512Z,100.00
2023-04-25T04:46:32.346Z,100.00
2023-04-25T04:47:32.205Z,100.00
2023-04-25T04:48:29.302Z,100.00
2023-04-25T04:49:25.954Z,100.00
2023-04-25T04:50:22.659Z,100.00
2023-04-25T04:51:19.269Z,100.00
2023-04-25T04:52:15.958Z,100.00
2023-04-25T04:53:12.941Z,100.00
2023-04-25T04:54:09.523Z,99.93
2023-04-25T04:55:07.012Z,99.98
2023-04-25T04:56:03.909Z,99.88
2023-04-25T04:57:00.581Z,100.00
2023-04-25T04:57:57.276Z,100.00
2023-04-25T04:58:53.949Z,100.00
2023-04-25T04:59:51.483Z,100.00
2023-04-25T05:00:48.637Z,100.00
2023-04-25T05:01:45.366Z,100.00
2023-04-25T05:02:42.105Z,100.00
2023-04-25T05:03:38.976Z,100.00
2023-04-25T05:04:35.727Z,99.46
2023-04-25T05:05:32.432Z,99.92
2023-04-25T05:06:30.264Z,99.13
2023-04-25T05:07:26.821Z,98.97
2023-04-25T05:08:23.459Z,98.98
2023-04-25T05:09:20.371Z,98.00
2023-04-25T05:10:18.578Z,97.61
2023-04-25T05:11:15.297Z,97.00
2023-04-25T05:12:12.048Z,96.74
2023-04-25T05:13:08.653Z,97.10
2023-04-25T05:14:05.293Z,96.03
2023-04-25T05:15:01.952Z,96.99
2023-04-25T05:15:58.574Z,97.60
2023-04-25T05:16:55.384Z,96.20
2023-04-25T05:17:52.183Z,94.04
2023-04-25T05:18:49.133Z,93.58
2023-04-25T05:19:45.854Z,94.20
2023-04-25T05:20:42.391Z,94.57
2023-04-25T05:21:38.952Z,93.78
2023-04-25T05:22:35.661Z,94.50
2023-04-25T05:23:33.534Z,93.90
2023-04-25T05:24:30.478Z,92.81
2023-04-25T05:25:28.713Z,94.38
2023-04-25T05:26:25.328Z,94.25
2023-04-25T05:27:22.085Z,93.53
2023-04-25T05:28:18.679Z,93.14
2023-04-25T05:29:15.372Z,92.68
2023-04-25T05:30:12.217Z,92.26
2023-04-25T05:31:10.965Z,93.11
2023-04-25T05:32:08.667Z,92.77
2023-04-25T05:33:05.360Z,92.56
2023-04-25T05:34:02.183Z,92.94
2023-04-25T05:34:58.836Z,94.35
2023-04-25T05:35:55.455Z,94.36
2023-04-25T05:36:52.085Z,93.21
2023-04-25T05:37:48.731Z,94.12
2023-04-25T05:38:45.437Z,95.39
2023-04-25T05:39:42.000Z,95.61
2023-04-25T05:40:38.601Z,95.16
2023-04-25T05:41:35.273Z,94.72
2023-04-25T05:42:31.865Z,95.40
2023-04-25T05:43:28.503Z,95.42
2023-04-25T05:44:25.157Z,95.33
2023-04-25T05:45:21.912Z,94.93
2023-04-25T05:46:18.606Z,95.11
2023-04-25T05:47:15.289Z,94.53
2023-04-25T05:48:11.930Z,93.79
2023-04-25T05:49:08.587Z,93.66
2023-04-25T05:50:05.886Z,94.11
2023-04-25T05:51:02.549Z,94.06
2023-04-25T05:51:59.236Z,94.02
2023-04-25T05:52:55.852Z,93.65
2023-04-25T05:53:52.955Z,94.70
2023-04-25T05:54:49.856Z,94.31
2023-04-25T05:55:46.527Z,95.15
2023-04-25T05:56:43.105Z,93.92
2023-04-25T05:57:42.400Z,93.07
2023-04-25T05:58:39.112Z,93.01
2023-04-25T05:59:35.967Z,93.14
2023-04-25T06:00:32.540Z,94.21
2023-04-25T06:01:29.244Z,93.75
2023-04-25T06:02:25.902Z,93.42
2023-04-25T06:03:22.806Z,93.03
2023-04-25T06:04:19.738Z,92.06
2023-04-25T06:05:16.796Z,92.15
2023-04-25T06:06:13.598Z,92.39
2023-04-25T06:07:10.348Z,93.27
2023-04-25T06:08:06.929Z,94.00
2023-04-25T06:09:03.902Z,94.33
2023-04-25T06:10:01.903Z,94.24
2023-04-25T06:10:58.603Z,94.85
2023-04-25T06:11:55.442Z,95.42
2023-04-25T06:12:52.094Z,95.65
2023-04-25T06:13:48.869Z,94.87
2023-04-25T06:14:45.894Z,94.20
2023-04-25T06:15:42.514Z,94.69
2023-04-25T06:16:39.139Z,93.40
2023-04-25T06:17:36.452Z,91.40
2023-04-25T06:18:33.051Z,91.74
2023-04-25T06:19:29.668Z,91.87
2023-04-25T06:20:29.069Z,93.32
2023-04-25T06:21:25.782Z,93.93
2023-04-25T06:22:22.440Z,93.91
2023-04-25T06:23:19.206Z,94.27
2023-04-25T06:24:15.794Z,93.39
2023-04-25T06:25:12.427Z,93.38
2023-04-25T06:26:09.053Z,94.02
2023-04-25T06:27:06.165Z,93.70
2023-04-25T06:28:02.836Z,94.14
2023-04-25T06:28:59.448Z,94.64
2023-04-25T06:29:56.111Z,95.56
2023-04-25T06:30:52.807Z,94.69
2023-04-25T06:31:49.469Z,94.48
2023-04-25T06:32:46.136Z,92.60
2023-04-25T06:33:42.717Z,93.06
2023-04-25T06:34:39.383Z,94.49
2023-04-25T06:35:36.254Z,95.29
2023-04-25T06:36:32.910Z,95.23
2023-04-25T06:37:29.554Z,94.05
2023-04-25T06:38:26.254Z,93.85
2023-04-25T06:39:24.405Z,94.64
2023-04-25T06:40:21.167Z,92.78
2023-04-25T06:41:17.738Z,91.21
2023-04-25T06:42:14.324Z,91.03
2023-04-25T06:43:11.636Z,90.87
2023-04-25T06:44:08.370Z,91.73
2023-04-25T06:45:05.281Z,92.26
2023-04-25T06:46:02.087Z,92.17
2023-04-25T06:46:58.799Z,92.39
2023-04-25T06:47:55.911Z,91.39
2023-04-25T06:48:52.778Z,90.69
2023-04-25T06:49:49.786Z,89.24
2023-04-25T06:50:46.556Z,88.86
2023-04-25T06:51:43.117Z,87.88
2023-04-25T06:52:39.684Z,88.15
2023-04-25T06:53:36.290Z,88.00
2023-04-25T06:54:32.955Z,88.07
2023-04-25T06:55:29.554Z,87.22
2023-04-25T06:56:26.130Z,86.86
2023-04-25T06:57:22.711Z,87.13
2023-04-25T06:58:19.875Z,85.21
2023-04-25T06:59:16.527Z,86.90
2023-04-25T07:00:13.909Z,84.51
2023-04-25T07:01:10.517Z,85.00
2023-04-25T07:02:07.335Z,85.84
2023-04-25T07:03:04.294Z,86.20
2023-04-25T07:04:01.320Z,85.79
2023-04-25T07:05:00.882Z,86.10
2023-04-25T07:05:57.581Z,86.06
2023-04-25T07:06:54.468Z,85.01
2023-04-25T07:07:51.113Z,82.69
2023-04-25T07:08:47.735Z,84.00
2023-04-25T07:09:44.316Z,85.25
2023-04-25T07:10:41.281Z,84.64
2023-04-25T07:11:38.136Z,82.29
2023-04-25T07:12:34.827Z,82.77
2023-04-25T07:13:31.510Z,85.58
2023-04-25T07:14:28.763Z,85.70
2023-04-25T07:15:25.903Z,84.28
2023-04-25T07:16:22.576Z,85.96
2023-04-25T07:17:19.218Z,86.37
2023-04-25T07:18:16.429Z,86.51
2023-04-25T07:19:13.365Z,86.48
2023-04-25T07:20:11.105Z,85.30
2023-04-25T07:21:07.833Z,86.37
2023-04-25T07:22:04.437Z,87.11
2023-04-25T07:23:01.268Z,87.24
2023-04-25T07:23:58.574Z,87.33
2023-04-25T07:24:55.353Z,88.86
2023-04-25T07:25:52.036Z,89.89
2023-04-25T07:26:48.708Z,88.85
2023-04-25T07:27:45.552Z,89.65
2023-04-25T07:28:42.200Z,89.69
2023-04-25T07:29:39.136Z,89.78
2023-04-25T07:30:36.087Z,88.02
2023-04-25T07:31:32.716Z,88.47
2023-04-25T07:32:29.375Z,88.51
2023-04-25T07:33:26.095Z,86.10
2023-04-25T07:34:22.880Z,87.09
2023-04-25T07:35:19.553Z,87.43
2023-04-25T07:36:16.672Z,88.30
2023-04-25T07:37:13.420Z,87.88
2023-04-25T07:38:11.366Z,88.30
2023-04-25T07:39:09.456Z,87.73
2023-04-25T07:40:08.928Z,84.28
2023-04-25T07:41:05.958Z,84.55
2023-04-25T07:42:03.397Z,85.35
2023-04-25T07:43:00.022Z,86.12
2023-04-25T07:43:56.581Z,86.51
2023-04-25T07:44:53.268Z,84.86
2023-04-25T07:45:49.893Z,83.55
2023-04-25T07:46:46.635Z,83.74
2023-04-25T07:47:43.260Z,84.82
2023-04-25T07:48:39.908Z,84.19
2023-04-25T07:49:37.734Z,81.23
2023-04-25T07:50:34.392Z,81.11
2023-04-25T07:51:31.126Z,81.51
2023-04-25T07:52:29.146Z,79.67
2023-04-25T07:53:27.923Z,79.32
2023-04-25T07:54:24.609Z,78.80
2023-04-25T07:55:21.250Z,80.34
2023-04-25T07:56:18.025Z,80.44
2023-04-25T07:57:15.129Z,81.50
2023-04-25T07:58:12.707Z,81.14
2023-04-25T07:59:09.310Z,80.47
2023-04-25T08:00:10.485Z,81.16
2023-04-25T08:01:07.105Z,82.54
2023-04-25T08:02:03.725Z,83.19
2023-04-25T08:03:00.680Z,84.38
2023-04-25T08:03:57.663Z,83.78
2023-04-25T08:04:54.546Z,84.08
2023-04-25T08:05:51.579Z,81.28
2023-04-25T08:06:48.882Z,81.40
2023-04-25T08:07:45.545Z,82.14
2023-04-25T08:08:42.204Z,83.13
2023-04-25T08:09:39.034Z,82.47
2023-04-25T08:10:35.725Z,79.65
2023-04-25T08:11:32.426Z,77.75
2023-04-25T08:12:29.018Z,79.76
2023-04-25T08:13:25.591Z,81.53
2023-04-25T08:14:22.165Z,82.10
2023-04-25T08:15:18.867Z,81.07
2023-04-25T08:16:15.875Z,82.63
2023-04-25T08:17:12.693Z,80.09
2023-04-25T08:18:09.482Z,81.13
2023-04-25T08:19:06.120Z,81.95
2023-04-25T08:20:06.438Z,82.68
2023-04-25T08:21:03.127Z,83.36
2023-04-25T08:21:59.746Z,84.89
2023-04-25T08:22:56.605Z,83.78
2023-04-25T08:23:53.997Z,84.44
2023-04-25T08:24:50.613Z,84.51
2023-04-25T08:25:47.498Z,83.59
2023-04-25T08:26:46.603Z,84.49
2023-04-25T08:27:44.036Z,84.59
2023-04-25T08:28:40.696Z,85.12
2023-04-25T08:29:37.276Z,85.63
2023-04-25T08:30:33.946Z,83.29
2023-04-25T08:31:30.913Z,82.10
2023-04-25T08:32:29.065Z,79.37
2023-04-25T08:33:27.486Z,80.66
2023-04-25T08:34:24.157Z,79.71
2023-04-25T08:35:21.587Z,78.38
2023-04-25T08:36:31.541Z,79.57
2023-04-25T08:37:35.289Z,81.62
2023-04-25T08:38:32.567Z,81.87
2023-04-25T08:39:29.231Z,82.31
2023-04-25T08:40:31.104Z,83.16
2023-04-25T08:41:29.063Z,78.98
2023-04-25T08:42:27.963Z,79.26
2023-04-25T08:43:24.668Z,79.92
2023-04-25T08:44:22.160Z,79.73
2023-04-25T08:45:18.970Z,81.31
2023-04-25T08:46:19.225Z,83.29
2023-04-25T08:47:16.055Z,83.92
2023-04-25T08:48:17.562Z,84.87
2023-04-25T08:49:14.165Z,86.45
2023-04-25T08:50:11.024Z,86.02
2023-04-25T08:52:11.994Z,80.52
2023-04-25T08:53:11.391Z,79.89
2023-04-25T08:54:27.980Z,74.53
2023-04-25T08:55:29.132Z,71.11
2023-04-25T08:56:27.779Z,73.10
2023-04-25T08:57:26.743Z,75.40
2023-04-25T08:58:23.941Z,78.76
2023-04-25T08:59:20.893Z,79.42
2023-04-25T09:00:17.977Z,75.13
2023-04-25T09:01:14.612Z,73.42
2023-04-25T09:02:15.952Z,71.97
2023-04-25T09:03:12.941Z,70.49
2023-04-25T09:04:09.951Z,73.33
2023-04-25T09:05:10.844Z,72.82
2023-04-25T09:06:08.484Z,73.56
2023-04-25T09:07:05.142Z,71.21
2023-04-25T09:08:02.034Z,70.60
2023-04-25T09:09:06.625Z,70.30
2023-04-25T09:10:04.513Z,69.33
2023-04-25T09:11:01.158Z,67.04
2023-04-25T09:11:59.111Z,67.32
2023-04-25T09:13:06.080Z,68.29
2023-04-25T09:14:17.304Z,69.26
2023-04-25T09:15:20.554Z,67.64
2023-04-25T09:16:20.063Z,62.89
2023-04-25T09:17:18.943Z,63.96
2023-04-25T09:18:29.820Z,67.04
2023-04-25T09:19:40.507Z,65.90
2023-04-25T09:21:00.934Z,66.73
2023-04-25T09:22:02.201Z,65.51
2023-04-25T09:23:07.722Z,65.74
2023-04-25T09:24:04.792Z,68.41
2023-04-25T09:25:13.374Z,68.88
2023-04-25T09:26:10.892Z,70.22
2023-04-25T09:27:09.794Z,71.08
2023-04-25T09:28:07.682Z,73.08
2023-04-25T09:29:08.493Z,70.06
2023-04-25T09:30:06.284Z,66.09
2023-04-25T09:31:03.027Z,70.00
2023-04-25T09:32:21.052Z,71.48
2023-04-25T09:33:18.081Z,73.55
2023-04-25T09:34:16.728Z,73.32
2023-04-25T09:35:25.382Z,75.19
2023-04-25T09:36:27.814Z,76.56
2023-04-25T09:37:27.036Z,77.14
2023-04-25T09:38:23.590Z,79.12
2023-04-25T09:39:22.479Z,79.90
2023-04-25T09:40:19.577Z,80.36
2023-04-25T09:41:24.676Z,79.13
2023-04-25T09:42:26.367Z,80.62
2023-04-25T09:43:25.557Z,79.88
2023-04-25T09:44:26.171Z,80.09
2023-04-25T09:45:23.575Z,77.41
2023-04-25T09:46:22.132Z,77.94
2023-04-25T09:47:19.429Z,79.09
2023-04-25T09:48:21.031Z,78.28
2023-04-25T09:49:17.725Z,79.55
2023-04-25T09:50:20.098Z,79.63
2023-04-25T09:51:16.858Z,77.73
2023-04-25T09:52:25.912Z,78.82
2023-04-25T09:53:22.888Z,75.65
2023-04-25T09:54:19.536Z,70.42
2023-04-25T09:55:16.981Z,71.96
2023-04-25T09:56:14.454Z,67.76
2023-04-25T09:57:16.924Z,66.88
2023-04-25T09:58:14.827Z,67.33
2023-04-25T09:59:13.221Z,69.01
2023-04-25T10:00:13.256Z,68.16
2023-04-25T10:01:11.940Z,66.72
2023-04-25T10:02:10.541Z,65.38
2023-04-25T10:03:07.466Z,68.63
2023-04-25T10:04:07.818Z,64.97
2023-04-25T10:05:08.946Z,66.05
2023-04-25T10:06:09.712Z,65.04
2023-04-25T10:07:07.897Z,57.95
2023-04-25T10:08:05.693Z,56.30
2023-04-25T10:09:04.921Z,58.21
2023-04-25T10:10:05.833Z,57.91
2023-04-25T10:11:04.807Z,61.82
2023-04-25T10:12:01.655Z,61.02
2023-04-25T10:12:58.473Z,55.24
2023-04-25T10:13:55.407Z,56.43
2023-04-25T10:14:53.297Z,55.67
2023-04-25T10:15:50.221Z,53.68
2023-04-25T10:16:48.086Z,56.47
2023-04-25T10:17:44.960Z,56.79
2023-04-25T10:18:41.785Z,58.14
2023-04-25T10:19:38.653Z,56.46
2023-04-25T10:20:35.375Z,59.54
2023-04-25T10:21:34.119Z,57.81
2023-04-25T10:22:35.892Z,65.02
2023-04-25T10:23:33.275Z,61.66
2023-04-25T10:24:29.875Z,62.34
2023-04-25T10:25:29.583Z,67.42
2023-04-25T10:26:27.402Z,63.90
2023-04-25T10:27:29.139Z,63.94
2023-04-25T10:28:26.158Z,64.64
2023-04-25T10:29:25.191Z,63.43
2023-04-25T10:30:21.801Z,63.79
2023-04-25T10:31:18.555Z,65.12
2023-04-25T10:32:15.839Z,66.21
2023-04-25T10:33:19.700Z,66.07
2023-04-25T10:34:18.135Z,67.80
2023-04-25T10:35:34.403Z,68.76
2023-04-25T10:36:33.369Z,66.99
2023-04-25T10:37:31.496Z,65.68
2023-04-25T10:38:28.153Z,68.02
2023-04-25T10:39:28.325Z,68.31
2023-04-25T10:40:25.358Z,70.26
2023-04-25T10:41:24.043Z,69.55
2023-04-25T10:42:20.754Z,70.89
2023-04-25T10:43:32.888Z,69.49
2023-04-25T10:44:31.264Z,68.13
2023-04-25T10:45:27.970Z,70.30
2023-04-25T10:46:26.955Z,71.05
2023-04-25T10:47:36.440Z,70.42
2023-04-25T10:48:33.169Z,70.63
2023-04-25T10:49:35.093Z,73.11
2023-04-25T10:50:40.236Z,72.65
2023-04-25T10:51:54.391Z,73.09
2023-04-25T10:52:52.209Z,72.52
2023-04-25T10:54:03.832Z,75.13
2023-04-25T10:55:01.594Z,75.88
2023-04-25T10:55:58.243Z,77.92
2023-04-25T10:56:54.854Z,79.07
2023-04-25T10:57:52.535Z,78.29
2023-04-25T10:58:52.110Z,79.97
2023-04-25T10:59:49.970Z,80.41
2023-04-25T11:00:56.710Z,81.76
2023-04-25T11:01:56.202Z,79.82
2023-04-25T11:03:00.057Z,79.75
2023-04-25T11:03:59.793Z,80.31
2023-04-25T11:04:56.845Z,80.73
2023-04-25T11:07:11.332Z,80.41
2023-04-25T11:08:17.371Z,75.03
2023-04-25T11:09:14.622Z,78.96
2023-04-25T11:10:11.288Z,76.15
2023-04-25T11:11:09.449Z,75.51
2023-04-25T11:12:08.286Z,76.17
2023-04-25T11:13:05.930Z,74.03
2023-04-25T11:14:02.695Z,68.50
2023-04-25T11:15:07.578Z,69.29
2023-04-25T11:16:12.438Z,70.07
2023-04-25T11:17:11.574Z,71.02
2023-04-25T11:18:09.162Z,65.54
2023-04-25T11:19:05.870Z,63.20
2023-04-25T11:20:07.551Z,60.22
2023-04-25T11:21:04.294Z,57.77
2023-04-25T11:22:03.825Z,55.02
2023-04-25T11:24:01.486Z,57.84
2023-04-25T11:24:58.088Z,55.08
2023-04-25T11:25:54.968Z,58.30
2023-04-25T11:26:51.629Z,54.57
2023-04-25T11:27:55.659Z,56.52
2023-04-25T11:28:52.263Z,55.16
2023-04-25T11:29:49.186Z,54.02
2023-04-25T11:30:49.975Z,56.30
2023-04-25T11:31:46.919Z,58.80
2023-04-25T11:32:44.413Z,56.89
2023-04-25T11:33:41.909Z,59.07
2023-04-25T11:34:38.549Z,55.50
2023-04-25T11:35:35.205Z,55.27
2023-04-25T11:36:32.383Z,57.39
2023-04-25T11:37:29.522Z,58.60
2023-04-25T11:38:28.717Z,55.39
2023-04-25T11:39:26.896Z,56.05
2023-04-25T11:40:23.742Z,55.11
2023-04-25T11:41:21.425Z,55.93
2023-04-25T11:42:18.617Z,57.45
2023-04-25T11:43:15.428Z,57.97
2023-04-25T11:44:12.197Z,53.68
2023-04-25T11:45:09.243Z,55.80
2023-04-25T11:46:09.275Z,53.99
2023-04-25T11:47:06.212Z,52.06
2023-04-25T11:48:03.556Z,55.69
2023-04-25T11:49:00.425Z,53.79
2023-04-25T11:49:58.524Z,51.61
2023-04-25T11:50:56.140Z,53.00
2023-04-25T11:51:52.889Z,54.45
2023-04-25T11:52:49.650Z,52.73
2023-04-25T11:53:46.602Z,53.57
2023-04-25T11:54:45.731Z,54.58
2023-04-25T11:55:42.360Z,51.58
2023-04-25T11:56:42.515Z,52.72
2023-04-25T11:57:40.751Z,53.57
2023-04-25T11:58:59.087Z,53.51
2023-04-25T11:59:55.739Z,50.10
2023-04-25T12:00:52.516Z,49.64
2023-04-25T12:01:51.071Z,50.81
2023-04-25T12:02:49.472Z,52.53
2023-04-25T12:03:49.459Z,49.30
2023-04-25T12:04:46.558Z,48.91
2023-04-25T12:05:43.530Z,50.38
2023-04-25T12:06:42.070Z,50.68
2023-04-25T12:07:39.296Z,51.47
2023-04-25T12:08:35.900Z,51.41
2023-04-25T12:09:34.832Z,52.27
2023-04-25T12:10:31.568Z,49.89
2023-04-25T12:11:28.199Z,52.66
2023-04-25T12:12:28.870Z,52.67
2023-04-25T12:13:27.706Z,51.68
2023-04-25T12:14:25.728Z,53.99
2023-04-25T12:15:26.603Z,54.18
2023-04-25T12:16:23.410Z,55.01
2023-04-25T12:17:20.063Z,54.95
2023-04-25T12:18:20.407Z,55.21
2023-04-25T12:19:18.192Z,58.01